createdAt,value
2023-06-07T00:01:07.963Z,92048.75
2023-06-07T00:03:35.869Z,92044.53
2023-06-07T00:06:02.635Z,92043.03
2023-06-07T00:08:32.428Z,92039.97
2023-06-07T00:10:59.586Z,92037.91
2023-06-07T00:13:26.171Z,92032.06
2023-06-07T00:15:52.735Z,92032.78
2023-06-07T00:18:20.705Z,92036.91
2023-06-07T00:20:47.455Z,92032.63
2023-06-07T00:23:17.104Z,92040.97
2023-06-07T00:25:43.952Z,92032.50
2023-06-07T00:28:10.703Z,92029.59
2023-06-07T00:30:37.240Z,92030.28
2023-06-07T00:33:04.138Z,92031.03
2023-06-07T00:35:30.765Z,92030.28
2023-06-07T00:37:57.356Z,92025.47
2023-06-07T00:40:23.984Z,92026.81
2023-06-07T00:42:50.660Z,92037.75
2023-06-07T00:45:17.376Z,92029.28
2023-06-07T00:47:44.276Z,92027.25
2023-06-07T00:50:11.737Z,92029.28
2023-06-07T00:52:38.951Z,92022.41
2023-06-07T00:55:06.547Z,92023.72
2023-06-07T00:57:34.128Z,92020.06
2023-06-07T01:00:02.854Z,92017.84
2023-06-07T01:02:30.578Z,92013.78
2023-06-07T01:04:58.974Z,92013.03
2023-06-07T01:07:26.239Z,92022.25
2023-06-07T01:09:54.338Z,92018.91
2023-06-07T01:12:22.291Z,92026.66
2023-06-07T01:14:50.050Z,92025.31
2023-06-07T01:17:19.207Z,92025.19
2023-06-07T01:19:52.942Z,92027.94
2023-06-07T01:22:22.047Z,92019.63
2023-06-07T01:24:49.526Z,92025.75
2023-06-07T01:27:16.369Z,92020.78
2023-06-07T01:29:44.592Z,92025.59
2023-06-07T01:32:13.459Z,92028.97
2023-06-07T01:34:41.118Z,92023.41
2023-06-07T01:37:08.695Z,92021.97
2023-06-07T01:39:37.416Z,92021.66
2023-06-07T01:42:04.926Z,92017.41
2023-06-07T01:44:32.168Z,92018.72
2023-06-07T01:46:58.798Z,92017.28
2023-06-07T01:49:25.385Z,92021.34
2023-06-07T01:51:51.948Z,92025.59
2023-06-07T01:54:19.651Z,92022.66
2023-06-07T01:57:06.037Z,92021.34
2023-06-07T01:59:58.537Z,92025.44
2023-06-07T02:02:38.605Z,92033.63
2023-06-07T02:05:10.590Z,92030.69
2023-06-07T02:07:44.780Z,92019.59
2023-06-07T02:10:12.077Z,92027.91
2023-06-07T02:12:40.165Z,92022.94
2023-06-07T02:15:08.637Z,92018.13
2023-06-07T02:17:36.174Z,92016.66
2023-06-07T02:20:04.456Z,92015.19
2023-06-07T02:22:31.403Z,92022.22
2023-06-07T02:24:57.930Z,92013.72
2023-06-07T02:27:24.474Z,92010.78
2023-06-07T02:29:50.995Z,92016.34
2023-06-07T02:32:17.822Z,92010.78
2023-06-07T02:34:44.477Z,92014.72
2023-06-07T02:37:11.408Z,92013.44
2023-06-07T02:39:38.205Z,92020.13
2023-06-07T02:42:04.887Z,92021.63
2023-06-07T02:44:31.462Z,92021.63
2023-06-07T02:46:58.015Z,92012.53
2023-06-07T02:49:24.540Z,92016.06
2023-06-07T02:51:51.052Z,92013.44
2023-06-07T02:54:20.460Z,92008.59
2023-06-07T02:56:47.223Z,92010.78
2023-06-07T02:59:13.833Z,92020.59
2023-06-07T03:01:40.444Z,92021.91
2023-06-07T03:04:07.258Z,92019.00
2023-06-07T03:06:34.333Z,92024.53
2023-06-07T03:09:00.915Z,92024.53
2023-06-07T03:11:27.442Z,92027.16
2023-06-07T03:13:53.984Z,92027.00
2023-06-07T03:16:20.760Z,92028.31
2023-06-07T03:18:47.327Z,92032.56
2023-06-07T03:21:13.855Z,92031.09
2023-06-07T03:23:41.206Z,92025.38
2023-06-07T03:26:08.668Z,92023.94
2023-06-07T03:28:35.809Z,92026.69
2023-06-07T03:31:02.645Z,92031.34
2023-06-07T03:33:29.187Z,92026.53
2023-06-07T03:35:57.351Z,92029.91
2023-06-07T03:38:23.901Z,92033.41
2023-06-07T03:40:50.654Z,92032.09
2023-06-07T03:43:17.211Z,92034.00
2023-06-07T03:45:43.713Z,92035.47
2023-06-07T03:48:10.312Z,92033.25
2023-06-07T03:50:36.915Z,92037.34
2023-06-07T03:53:03.441Z,92038.50
2023-06-07T03:55:30.714Z,92039.81
2023-06-07T03:57:57.684Z,92041.28
2023-06-07T04:00:28.054Z,92044.06
2023-06-07T04:02:55.534Z,92029.31
2023-06-07T04:05:25.667Z,92034.13
2023-06-07T04:07:52.260Z,92028.56
2023-06-07T04:10:18.775Z,92029.84
2023-06-07T04:12:46.216Z,92037.03
2023-06-07T04:15:12.750Z,92041.13
2023-06-07T04:17:39.276Z,92037.63
2023-06-07T04:20:07.474Z,92041.13
2023-06-07T04:22:36.609Z,92039.66
2023-06-07T04:25:04.678Z,92038.94
2023-06-07T04:27:31.925Z,92039.66
2023-06-07T04:29:58.519Z,92042.75
2023-06-07T04:32:26.343Z,92040.09
2023-06-07T04:34:53.005Z,92047.72
2023-06-07T04:37:20.417Z,92051.38
2023-06-07T04:39:50.307Z,92046.25
2023-06-07T04:42:20.729Z,92051.78
2023-06-07T04:44:48.661Z,92051.09
2023-06-07T04:47:15.194Z,92051.09
2023-06-07T04:49:41.934Z,92047.41
2023-06-07T04:52:08.989Z,92052.22
2023-06-07T04:54:37.782Z,92047.84
2023-06-07T04:57:05.536Z,92050.44
2023-06-07T04:59:35.904Z,92042.13
2023-06-07T05:02:03.211Z,92044.91
2023-06-07T05:04:31.320Z,92044.91
2023-06-07T05:06:59.700Z,92040.66
2023-06-07T05:09:28.745Z,92037.91
2023-06-07T05:11:57.107Z,92040.66
2023-06-07T05:14:23.676Z,92040.66
2023-06-07T05:16:50.186Z,92040.66
2023-06-07T05:19:17.990Z,92032.19
2023-06-07T05:21:44.563Z,92030.88
2023-06-07T05:24:11.298Z,92037.91
2023-06-07T05:26:38.070Z,92038.34
2023-06-07T05:29:04.614Z,92037.03
2023-06-07T05:31:31.824Z,92034.44
2023-06-07T05:33:58.429Z,92040.25
2023-06-07T05:36:24.999Z,92036.19
2023-06-07T05:38:51.523Z,92039.13
2023-06-07T05:41:18.266Z,92035.03
2023-06-07T05:43:44.862Z,92032.41
2023-06-07T05:46:11.536Z,92038.13
2023-06-07T05:48:38.048Z,92034.75
2023-06-07T05:51:06.679Z,92034.00
2023-06-07T05:53:34.866Z,92025.69
2023-06-07T05:56:01.432Z,92027.44
2023-06-07T05:58:28.340Z,92030.53
2023-06-07T06:00:55.297Z,92033.19
2023-06-07T06:03:22.447Z,92026.03
2023-06-07T06:05:49.227Z,92030.44
2023-06-07T06:08:16.964Z,92018.16
2023-06-07T06:10:45.832Z,92017.00
2023-06-07T06:13:12.449Z,92022.84
2023-06-07T06:15:39.024Z,92020.22
2023-06-07T06:18:05.770Z,92015.53
2023-06-07T06:20:35.094Z,92025.50
2023-06-07T06:23:04.984Z,92023.00
2023-06-07T06:25:32.139Z,92015.56
2023-06-07T06:28:01.801Z,92011.78
2023-06-07T06:30:28.701Z,92006.38
2023-06-07T06:32:55.978Z,92012.09
2023-06-07T06:35:22.716Z,92013.69
2023-06-07T06:37:49.425Z,92005.22
2023-06-07T06:40:16.634Z,92009.16
2023-06-07T06:42:43.195Z,92002.72
2023-06-07T06:45:09.941Z,92007.13
2023-06-07T06:47:38.231Z,91999.66
2023-06-07T06:50:11.952Z,92001.56
2023-06-07T06:52:45.593Z,91994.38
2023-06-07T06:55:12.143Z,91997.00
2023-06-07T06:57:38.673Z,91990.16
2023-06-07T07:00:09.231Z,91991.59
2023-06-07T07:02:35.844Z,91982.53
2023-06-07T07:05:04.708Z,91981.66
2023-06-07T07:07:31.218Z,91982.41
2023-06-07T07:09:57.821Z,91980.47
2023-06-07T07:12:24.520Z,91976.41
2023-06-07T07:14:51.183Z,91964.69
2023-06-07T07:17:18.091Z,91973.91
2023-06-07T07:19:44.712Z,91968.47
2023-06-07T07:22:13.355Z,91969.94
2023-06-07T07:24:39.958Z,91966.56
2023-06-07T07:27:07.809Z,91964.38
2023-06-07T07:29:34.466Z,91959.56
2023-06-07T07:32:01.111Z,91960.28
2023-06-07T07:34:27.715Z,91947.72
2023-06-07T07:36:54.761Z,91942.16
2023-06-07T07:39:23.175Z,91945.06
2023-06-07T07:41:49.807Z,91938.03
2023-06-07T07:44:16.419Z,91938.78
2023-06-07T07:46:42.978Z,91929.09
2023-06-07T07:49:10.555Z,91929.25
2023-06-07T07:51:37.685Z,91927.34
2023-06-07T07:54:05.230Z,91926.00
2023-06-07T07:56:31.767Z,91919.28
2023-06-07T07:58:58.300Z,91916.66
2023-06-07T08:01:25.094Z,91920.88
2023-06-07T08:03:52.178Z,91916.22
2023-06-07T08:06:18.948Z,91909.91
2023-06-07T08:08:48.555Z,91907.97
2023-06-07T08:11:15.158Z,91905.78
2023-06-07T08:13:41.692Z,91908.56
2023-06-07T08:16:08.253Z,91902.88
2023-06-07T08:18:34.878Z,91898.78
2023-06-07T08:21:01.651Z,91898.78
2023-06-07T08:23:28.232Z,91897.31
2023-06-07T08:25:55.057Z,91884.75
2023-06-07T08:28:21.588Z,91884.75
2023-06-07T08:30:48.740Z,91886.06
2023-06-07T08:33:15.305Z,91884.75
2023-06-07T08:35:41.922Z,91877.72
2023-06-07T08:38:09.211Z,91872.16
2023-06-07T08:40:39.452Z,91873.63
2023-06-07T08:43:06.931Z,91873.63
2023-06-07T08:45:33.521Z,91879.19
2023-06-07T08:48:07.370Z,91870.69
2023-06-07T08:50:34.306Z,91872.16
2023-06-07T08:53:07.403Z,91865.28
2023-06-07T08:55:34.836Z,91856.94
2023-06-07T08:58:02.633Z,91854.00
2023-06-07T09:00:30.014Z,91861.03
2023-06-07T09:02:56.666Z,91854.00
2023-06-07T09:05:23.959Z,91851.38
2023-06-07T09:07:51.316Z,91838.78
2023-06-07T09:10:21.424Z,91839.50
2023-06-07T09:12:49.640Z,91840.25
2023-06-07T09:15:21.182Z,91836.72
2023-06-07T09:18:01.220Z,91835.41
2023-06-07T09:20:29.915Z,91829.13
2023-06-07T09:23:01.860Z,91833.50
2023-06-07T09:25:29.148Z,91825.16
2023-06-07T09:27:56.281Z,91828.66
2023-06-07T09:30:23.525Z,91825.28
2023-06-07T09:32:50.888Z,91821.91
2023-06-07T09:35:21.840Z,91822.66
2023-06-07T09:37:52.885Z,91820.00
2023-06-07T09:40:20.104Z,91820.75
2023-06-07T09:42:57.814Z,91818.81
2023-06-07T09:45:24.409Z,91817.50
2023-06-07T09:48:01.475Z,91809.16
2023-06-07T09:50:29.521Z,91809.16
2023-06-07T09:52:57.877Z,91813.41
2023-06-07T09:55:29.445Z,91823.19
2023-06-07T09:57:59.585Z,91810.63
2023-06-07T10:00:27.143Z,91804.31
2023-06-07T10:03:07.326Z,91803.59
2023-06-07T10:05:34.475Z,91798.03
2023-06-07T10:08:01.438Z,91798.03
2023-06-07T10:10:28.909Z,91796.69
2023-06-07T10:12:58.321Z,91793.91
2023-06-07T10:15:26.149Z,91789.81
2023-06-07T10:18:15.844Z,91785.56
2023-06-07T10:20:53.316Z,91777.09
2023-06-07T10:23:47.522Z,91778.56
2023-06-07T10:26:23.104Z,91779.88
2023-06-07T10:29:12.569Z,91768.75
2023-06-07T10:31:48.401Z,91770.94
2023-06-07T10:34:16.118Z,91766.09
2023-06-07T10:36:43.257Z,91759.09
2023-06-07T10:39:12.786Z,91757.63
2023-06-07T10:41:40.660Z,91756.19
2023-06-07T10:44:07.828Z,91753.53
2023-06-07T10:46:34.544Z,91744.47
2023-06-07T10:49:01.366Z,91751.47
2023-06-07T10:51:44.690Z,91752.34
2023-06-07T10:54:11.736Z,91746.78
2023-06-07T10:56:39.403Z,91746.03
2023-06-07T10:59:15.186Z,91751.00
2023-06-07T11:01:49.965Z,91746.78
2023-06-07T11:04:41.232Z,91748.97
2023-06-07T11:07:26.636Z,91744.13
2023-06-07T11:10:19.775Z,91733.00
2023-06-07T11:12:46.474Z,91741.50
2023-06-07T11:15:19.558Z,91733.28
2023-06-07T11:18:04.220Z,91745.84
2023-06-07T11:20:37.283Z,91730.50
2023-06-07T11:23:35.226Z,91731.94
2023-06-07T11:26:08.270Z,91723.59
2023-06-07T11:28:38.280Z,91725.78
2023-06-07T11:31:09.805Z,91715.38
2023-06-07T11:33:37.370Z,91716.69
2023-06-07T11:36:10.312Z,91715.38
2023-06-07T11:38:38.527Z,91706.31
2023-06-07T11:41:06.834Z,91704.53
2023-06-07T11:43:33.833Z,91704.63
2023-06-07T11:46:01.090Z,91697.91
2023-06-07T11:48:31.712Z,91696.72
2023-06-07T11:51:00.554Z,91696.56
2023-06-07T11:53:31.903Z,91699.50
2023-06-07T11:56:03.201Z,91693.94
2023-06-07T11:58:31.239Z,91695.84
2023-06-07T12:00:58.644Z,91693.94
2023-06-07T12:03:25.934Z,91688.38
2023-06-07T12:05:54.485Z,91678.69
2023-06-07T12:08:22.063Z,91677.25
2023-06-07T12:10:56.097Z,91684.88
2023-06-07T12:13:24.080Z,91681.38
2023-06-07T12:15:55.005Z,91673.03
2023-06-07T12:18:41.999Z,91673.13
2023-06-07T12:21:13.380Z,91678.00
2023-06-07T12:23:51.979Z,91673.13
2023-06-07T12:26:31.732Z,91674.59
2023-06-07T12:29:02.271Z,91671.09
2023-06-07T12:31:29.451Z,91669.03
2023-06-07T12:33:59.396Z,91666.38
2023-06-07T12:36:31.231Z,91661.56
2023-06-07T12:39:03.386Z,91655.25
2023-06-07T12:41:30.256Z,91655.38
2023-06-07T12:44:02.447Z,91642.66
2023-06-07T12:46:30.447Z,91641.72
2023-06-07T12:48:57.330Z,91640.41
2023-06-07T12:51:25.122Z,91640.53
2023-06-07T12:53:52.346Z,91640.53
2023-06-07T12:56:18.887Z,91639.31
2023-06-07T12:58:45.481Z,91640.06
2023-06-07T13:01:12.054Z,91636.69
2023-06-07T13:03:39.184Z,91631.13
2023-06-07T13:06:05.877Z,91636.69
2023-06-07T13:08:32.426Z,91621.28
2023-06-07T13:10:59.089Z,91629.63
2023-06-07T13:13:25.663Z,91624.06
2023-06-07T13:15:52.216Z,91622.75
2023-06-07T13:18:19.082Z,91621.44
2023-06-07T13:20:45.782Z,91615.84
2023-06-07T13:23:12.312Z,91610.41
2023-06-07T13:25:38.921Z,91610.28
2023-06-07T13:28:05.626Z,91611.75
2023-06-07T13:30:32.692Z,91611.91
2023-06-07T13:32:59.452Z,91618.78
2023-06-07T13:35:26.082Z,91620.25
2023-06-07T13:37:56.347Z,91612.03
2023-06-07T13:40:22.869Z,91602.31
2023-06-07T13:42:49.665Z,91605.84
2023-06-07T13:45:16.221Z,91604.25
2023-06-07T13:47:42.922Z,91594.31
2023-06-07T13:50:10.203Z,91591.53
2023-06-07T13:52:37.493Z,91591.53
2023-06-07T13:55:04.389Z,91586.72
2023-06-07T13:57:30.946Z,91588.16
2023-06-07T13:59:58.273Z,91584.06
2023-06-07T14:02:25.058Z,91595.31
2023-06-07T14:04:52.051Z,91587.81
2023-06-07T14:07:18.903Z,91585.63
2023-06-07T14:09:46.715Z,91580.19
2023-06-07T14:12:13.335Z,91582.97
2023-06-07T14:14:40.453Z,91587.06
2023-06-07T14:17:07.321Z,91582.09
2023-06-07T14:19:33.873Z,91576.69
2023-06-07T14:22:00.536Z,91578.38
2023-06-07T14:24:27.229Z,91576.44
2023-06-07T14:26:54.107Z,91575.09
2023-06-07T14:29:20.798Z,91591.22
2023-06-07T14:31:47.450Z,91583.59
2023-06-07T14:34:15.058Z,91587.84
2023-06-07T14:36:42.910Z,91581.06
2023-06-07T14:39:09.691Z,91586.03
2023-06-07T14:41:36.295Z,91583.97
2023-06-07T14:44:02.852Z,91573.94
2023-06-07T14:46:29.428Z,91587.25
2023-06-07T14:48:55.992Z,91579.59
2023-06-07T14:51:24.514Z,91578.88
2023-06-07T14:53:51.386Z,91591.47
2023-06-07T14:56:17.912Z,91591.47
2023-06-07T14:58:45.011Z,91586.63
2023-06-07T15:01:13.326Z,91588.06
2023-06-07T15:03:40.564Z,91588.06
2023-06-07T15:06:07.157Z,91588.06
2023-06-07T15:08:33.727Z,91589.53
2023-06-07T15:11:00.271Z,91583.97
2023-06-07T15:13:26.800Z,91583.97
2023-06-07T15:15:53.324Z,91591.00
2023-06-07T15:18:21.790Z,91588.34
2023-06-07T15:20:48.437Z,91590.38
2023-06-07T15:23:14.988Z,91578.66
2023-06-07T15:25:41.509Z,91575.75
2023-06-07T15:28:08.942Z,91574.53
2023-06-07T15:30:35.709Z,91578.06
2023-06-07T15:33:02.306Z,91575.88
2023-06-07T15:35:28.857Z,91573.09
2023-06-07T15:37:55.512Z,91582.75
2023-06-07T15:40:22.058Z,91571.63
2023-06-07T15:42:48.989Z,91582.75
2023-06-07T15:45:15.793Z,91578.66
2023-06-07T15:47:57.974Z,91567.53
2023-06-07T15:50:24.564Z,91560.50
2023-06-07T15:52:51.104Z,91561.97
2023-06-07T15:55:17.736Z,91560.00
2023-06-07T15:57:44.279Z,91545.34
2023-06-07T16:00:19.491Z,91555.16
2023-06-07T16:02:54.636Z,91549.59
2023-06-07T16:05:21.441Z,91558.09
2023-06-07T16:07:48.038Z,91556.63
2023-06-07T16:10:14.608Z,91571.41
2023-06-07T16:12:41.255Z,91568.00
2023-06-07T16:15:08.339Z,91577.69
2023-06-07T16:17:34.989Z,91566.56
2023-06-07T16:20:01.564Z,91566.56
2023-06-07T16:22:28.143Z,91565.09
2023-06-07T16:24:54.652Z,91570.66
2023-06-07T16:27:21.221Z,91570.66
2023-06-07T16:29:47.861Z,91574.06
2023-06-07T16:32:14.500Z,91574.78
2023-06-07T16:34:41.129Z,91564.84
2023-06-07T16:37:07.672Z,91573.94
2023-06-07T16:39:34.172Z,91580.09
2023-06-07T16:42:00.758Z,91574.53
2023-06-07T16:44:27.334Z,91568.97
2023-06-07T16:46:55.535Z,91575.97
2023-06-07T16:49:24.295Z,91580.09
2023-06-07T16:51:51.123Z,91582.88
2023-06-07T16:54:17.740Z,91574.53
2023-06-07T16:56:44.291Z,91577.31
2023-06-07T16:59:10.879Z,91580.09
2023-06-07T17:01:37.477Z,91580.09
2023-06-07T17:04:04.584Z,91588.34
2023-06-07T17:06:31.118Z,91588.34
2023-06-07T17:08:57.639Z,91589.81
2023-06-07T17:11:26.271Z,91586.88
2023-06-07T17:13:52.881Z,91588.34
2023-06-07T17:16:19.457Z,91593.16
2023-06-07T17:18:46.079Z,91593.78
2023-06-07T17:21:12.912Z,91595.84
2023-06-07T17:23:39.692Z,91598.63
2023-06-07T17:26:07.763Z,91604.91
2023-06-07T17:28:34.647Z,91600.81
2023-06-07T17:31:01.467Z,91599.47
2023-06-07T17:33:28.275Z,91602.88
2023-06-07T17:35:54.818Z,91603.59
2023-06-07T17:38:21.604Z,91612.06
2023-06-07T17:40:48.308Z,91606.50
2023-06-07T17:43:14.907Z,91607.94
2023-06-07T17:45:41.624Z,91610.00
2023-06-07T17:48:08.249Z,91619.09
2023-06-07T17:50:46.048Z,91624.66
2023-06-07T17:53:14.622Z,91624.66
2023-06-07T17:55:42.305Z,91630.22
2023-06-07T17:58:08.821Z,91623.22
2023-06-07T18:00:35.377Z,91626.56
2023-06-07T18:03:03.633Z,91628.66
2023-06-07T18:05:30.424Z,91637.00
2023-06-07T18:07:56.957Z,91645.22
2023-06-07T18:10:23.465Z,91635.41
2023-06-07T18:12:50.556Z,91643.75
2023-06-07T18:15:17.092Z,91650.66
2023-06-07T18:17:44.003Z,91647.88
2023-06-07T18:20:11.023Z,91651.97
2023-06-07T18:22:37.715Z,91656.09
2023-06-07T18:25:04.675Z,91655.38
2023-06-07T18:27:31.222Z,91660.94
2023-06-07T18:29:57.747Z,91653.94
2023-06-07T18:32:24.496Z,91658.75
2023-06-07T18:34:51.897Z,91662.88
2023-06-07T18:37:18.473Z,91665.66
2023-06-07T18:39:45.056Z,91671.84
2023-06-07T18:42:13.637Z,91664.06
2023-06-07T18:44:42.296Z,91675.19
2023-06-07T18:47:08.880Z,91676.66
2023-06-07T18:49:35.496Z,91680.91
2023-06-07T18:52:03.312Z,91679.59
2023-06-07T18:54:29.867Z,91678.84
2023-06-07T18:56:58.248Z,91685.88
2023-06-07T18:59:24.850Z,91688.53
2023-06-07T19:01:55.385Z,91687.81
2023-06-07T19:04:23.028Z,91694.69
2023-06-07T19:06:51.915Z,91695.91
2023-06-07T19:09:18.893Z,91701.59
2023-06-07T19:11:46.160Z,91699.41
2023-06-07T19:14:12.748Z,91702.19
2023-06-07T19:16:39.534Z,91712.00
2023-06-07T19:19:06.699Z,91720.94
2023-06-07T19:21:33.576Z,91718.91
2023-06-07T19:24:03.178Z,91728.69
2023-06-07T19:26:30.853Z,91735.00
2023-06-07T19:29:00.358Z,91736.44
2023-06-07T19:31:27.148Z,91740.56
2023-06-07T19:33:54.478Z,91748.31
2023-06-07T19:36:21.311Z,91760.94
2023-06-07T19:38:47.873Z,91765.63
2023-06-07T19:41:14.488Z,91763.56
2023-06-07T19:43:41.566Z,91771.19
2023-06-07T19:46:08.339Z,91768.28
2023-06-07T19:48:34.972Z,91771.06
2023-06-07T19:51:01.550Z,91768.13
2023-06-07T19:53:28.266Z,91777.84
2023-06-07T19:55:54.794Z,91774.31
2023-06-07T19:58:21.315Z,91780.63
2023-06-07T20:00:47.858Z,91779.13
2023-06-07T20:03:14.485Z,91781.22
2023-06-07T20:05:41.076Z,91779.03
2023-06-07T20:08:08.830Z,91785.91
2023-06-07T20:10:35.880Z,91783.88
2023-06-07T20:13:02.622Z,91786.50
2023-06-07T20:15:29.168Z,91794.25
2023-06-07T20:17:55.997Z,91792.06
2023-06-07T20:20:22.684Z,91803.94
2023-06-07T20:22:49.197Z,91808.03
2023-06-07T20:25:16.775Z,91815.09
2023-06-07T20:27:43.299Z,91807.31
2023-06-07T20:30:10.395Z,91817.00
2023-06-07T20:32:37.080Z,91819.16
2023-06-07T20:35:03.807Z,91821.13
2023-06-07T20:37:30.352Z,91823.28
2023-06-07T20:39:56.899Z,91830.78
2023-06-07T20:42:23.421Z,91838.53
2023-06-07T20:44:53.909Z,91832.25
2023-06-07T20:47:21.116Z,91839.13
2023-06-07T20:49:47.701Z,91840.59
2023-06-07T20:52:14.256Z,91837.06
2023-06-07T20:54:40.866Z,91844.09
2023-06-07T20:57:07.900Z,91834.44
2023-06-07T20:59:35.606Z,91835.88
2023-06-07T21:02:02.377Z,91840.13
2023-06-07T21:04:29.054Z,91851.25
2023-06-07T21:06:55.631Z,91846.41
2023-06-07T21:09:22.271Z,91842.91
2023-06-07T21:11:48.876Z,91842.91
2023-06-07T21:14:17.206Z,91856.97
2023-06-07T21:16:47.440Z,91847.00
2023-06-07T21:19:14.361Z,91856.22
2023-06-07T21:21:40.900Z,91858.16
2023-06-07T21:24:07.659Z,91859.63
2023-06-07T21:26:34.901Z,91862.97
2023-06-07T21:29:01.586Z,91866.34
2023-06-07T21:31:28.194Z,91865.66
2023-06-07T21:34:02.087Z,91864.91
2023-06-07T21:36:29.818Z,91869.13
2023-06-07T21:38:59.763Z,91870.47
2023-06-07T21:41:27.109Z,91869.00
2023-06-07T21:43:53.782Z,91869.59
2023-06-07T21:46:20.485Z,91878.69
2023-06-07T21:48:47.128Z,91871.66
2023-06-07T21:51:14.637Z,91876.50
2023-06-07T21:53:41.319Z,91879.88
2023-06-07T21:56:08.020Z,91875.03
2023-06-07T21:58:34.621Z,91879.88
2023-06-07T22:01:01.266Z,91872.84
2023-06-07T22:03:27.905Z,91881.19
2023-06-07T22:05:54.547Z,91877.09
2023-06-07T22:08:21.133Z,91888.22
2023-06-07T22:10:47.659Z,91889.53
2023-06-07T22:13:17.659Z,91890.28
2023-06-07T22:15:45.529Z,91886.63
2023-06-07T22:18:12.526Z,91892.19
2023-06-07T22:20:41.337Z,91887.94
2023-06-07T22:23:08.843Z,91895.56
2023-06-07T22:25:40.870Z,91893.50
2023-06-07T22:28:13.595Z,91897.75
2023-06-07T22:30:41.222Z,91891.47
2023-06-07T22:33:10.712Z,91893.66
2023-06-07T22:35:38.473Z,91886.75
2023-06-07T22:38:07.183Z,91892.31
2023-06-07T22:40:35.187Z,91893.78
2023-06-07T22:43:02.321Z,91892.47
2023-06-07T22:45:31.448Z,91895.38
2023-06-07T22:48:11.018Z,91894.66
2023-06-07T22:50:39.288Z,91895.38
2023-06-07T22:53:07.552Z,91898.16
2023-06-07T22:55:35.515Z,91891.25
2023-06-07T22:58:03.977Z,91889.81
2023-06-07T23:00:30.984Z,91896.72
2023-06-07T23:03:00.379Z,91899.50
2023-06-07T23:05:29.955Z,91891.00
2023-06-07T23:07:58.136Z,91901.53
2023-06-07T23:10:36.138Z,91897.88
2023-06-07T23:13:16.325Z,91895.25
2023-06-07T23:15:43.914Z,91899.22
2023-06-07T23:18:12.308Z,91899.22
2023-06-07T23:20:41.868Z,91897.75
2023-06-07T23:23:10.599Z,91901.13
2023-06-07T23:25:37.331Z,91899.22
2023-06-07T23:28:04.097Z,91901.88
2023-06-07T23:30:31.400Z,91905.97
2023-06-07T23:32:58.004Z,91905.97
2023-06-07T23:35:24.932Z,91910.06
2023-06-07T23:37:51.650Z,91905.25
2023-06-07T23:40:18.629Z,91901.59
2023-06-07T23:42:46.069Z,91898.66
2023-06-07T23:45:13.115Z,91902.78
2023-06-07T23:47:40.475Z,91894.44
2023-06-07T23:50:08.239Z,91901.31
2023-06-07T23:52:36.017Z,91898.41
2023-06-07T23:55:02.943Z,91891.19
2023-06-07T23:57:29.921Z,91902.31
2023-06-07T23:59:56.849Z,91900.72
